createdAt,value
2023-03-06T00:01:36.104Z,100115.84
2023-03-06T00:04:03.334Z,100117.34
2023-03-06T00:06:30.683Z,100117.09
2023-03-06T00:08:57.757Z,100112.94
2023-03-06T00:11:24.919Z,100118.94
2023-03-06T00:13:53.321Z,100123.50
2023-03-06T00:16:20.480Z,100115.13
2023-03-06T00:18:47.894Z,100118.53
2023-03-06T00:21:14.982Z,100121.63
2023-03-06T00:23:42.230Z,100128.88
2023-03-06T00:26:10.188Z,100123.22
2023-03-06T00:28:39.746Z,100122.66
2023-03-06T00:31:06.865Z,100122.66
2023-03-06T00:33:35.117Z,100122.28
2023-03-06T00:36:07.296Z,100131.25
2023-03-06T00:38:35.686Z,100128.19
2023-03-06T00:41:13.679Z,100113.72
2023-03-06T00:43:40.830Z,100112.94
2023-03-06T00:46:08.612Z,100119.09
2023-03-06T00:48:35.817Z,100120.72
2023-03-06T00:51:02.988Z,100114.63
2023-03-06T00:53:30.162Z,100119.97
2023-03-06T00:55:57.241Z,100112.16
2023-03-06T00:58:24.317Z,100122.81
2023-03-06T01:00:51.535Z,100114.19
2023-03-06T01:03:18.602Z,100113.16
2023-03-06T01:05:45.726Z,100102.88
2023-03-06T01:08:12.833Z,100108.25
2023-03-06T01:10:41.173Z,100106.38
2023-03-06T01:13:10.474Z,100115.03
2023-03-06T01:15:37.871Z,100111.72
2023-03-06T01:18:05.102Z,100111.78
2023-03-06T01:20:32.317Z,100112.03
2023-03-06T01:22:59.609Z,100112.47
2023-03-06T01:25:28.440Z,100108.31
2023-03-06T01:27:55.557Z,100107.50
2023-03-06T01:30:22.638Z,100110.88
2023-03-06T01:32:49.712Z,100110.88
2023-03-06T01:35:17.003Z,100110.88
2023-03-06T01:37:44.150Z,100116.00
2023-03-06T01:40:13.363Z,100122.00
2023-03-06T01:42:40.485Z,100126.34
2023-03-06T01:45:13.553Z,100128.22
2023-03-06T01:47:40.724Z,100128.28
2023-03-06T01:50:10.652Z,100136.81
2023-03-06T01:52:48.098Z,100135.00
2023-03-06T01:55:20.063Z,100140.22
2023-03-06T01:57:52.934Z,100152.41
2023-03-06T02:00:24.122Z,100154.09
2023-03-06T02:03:05.954Z,100157.50
2023-03-06T02:05:33.696Z,100161.16
2023-03-06T02:08:02.450Z,100158.53
2023-03-06T02:10:29.871Z,100164.59
2023-03-06T02:12:57.123Z,100172.34
2023-03-06T02:15:27.296Z,100166.31
2023-03-06T02:17:54.681Z,100171.44
2023-03-06T02:20:50.993Z,100170.50
2023-03-06T02:23:27.090Z,100169.69
2023-03-06T02:25:56.614Z,100164.22
2023-03-06T02:28:25.500Z,100178.16
2023-03-06T02:30:55.155Z,100174.69
2023-03-06T02:33:26.062Z,100174.78
2023-03-06T02:36:00.488Z,100184.34
2023-03-06T02:38:33.368Z,100174.78
2023-03-06T02:41:04.332Z,100184.41
2023-03-06T02:43:34.715Z,100187.84
2023-03-06T02:46:02.871Z,100178.25
2023-03-06T02:48:29.985Z,100179.25
2023-03-06T02:50:57.061Z,100177.25
2023-03-06T02:53:24.365Z,100186.28
2023-03-06T02:55:52.048Z,100180.59
2023-03-06T02:58:20.710Z,100188.56
2023-03-06T03:00:49.263Z,100195.41
2023-03-06T03:03:16.973Z,100189.06
2023-03-06T03:05:44.071Z,100192.91
2023-03-06T03:08:24.241Z,100189.31
2023-03-06T03:10:57.200Z,100184.22
2023-03-06T03:13:25.704Z,100194.25
2023-03-06T03:16:07.900Z,100190.13
2023-03-06T03:18:36.046Z,100194.53
2023-03-06T03:21:08.580Z,100192.63
2023-03-06T03:23:35.769Z,100187.41
2023-03-06T03:26:20.766Z,100184.97
2023-03-06T03:28:58.646Z,100189.59
2023-03-06T03:31:26.818Z,100191.13
2023-03-06T03:33:54.117Z,100191.00
2023-03-06T03:36:22.888Z,100195.19
2023-03-06T03:38:49.955Z,100196.19
2023-03-06T03:41:17.044Z,100195.03
2023-03-06T03:43:44.389Z,100195.13
2023-03-06T03:46:11.631Z,100199.38
2023-03-06T03:48:39.429Z,100200.75
2023-03-06T03:51:13.095Z,100196.66
2023-03-06T03:53:45.439Z,100199.56
2023-03-06T03:56:17.199Z,100203.50
2023-03-06T03:58:52.919Z,100208.88
2023-03-06T04:01:20.682Z,100201.78
2023-03-06T04:03:48.331Z,100205.75
2023-03-06T04:06:17.433Z,100208.44
2023-03-06T04:08:45.193Z,100214.94
2023-03-06T04:11:12.567Z,100216.38
2023-03-06T04:13:39.975Z,100208.88
2023-03-06T04:16:07.920Z,100221.84
2023-03-06T04:18:37.288Z,100219.25
2023-03-06T04:21:06.148Z,100220.34
2023-03-06T04:23:33.950Z,100219.25
2023-03-06T04:26:01.032Z,100225.28
2023-03-06T04:28:28.975Z,100231.63
2023-03-06T04:30:57.543Z,100233.38
2023-03-06T04:33:24.816Z,100231.22
2023-03-06T04:35:52.231Z,100236.19
2023-03-06T04:38:25.435Z,100230.44
2023-03-06T04:40:52.565Z,100226.00
2023-03-06T04:43:19.863Z,100228.38
2023-03-06T04:45:47.116Z,100233.69
2023-03-06T04:48:18.332Z,100236.00
2023-03-06T04:50:46.007Z,100246.50
2023-03-06T04:53:14.722Z,100249.44
2023-03-06T04:55:41.834Z,100238.66
2023-03-06T04:58:10.324Z,100250.88
2023-03-06T05:00:37.801Z,100247.44
2023-03-06T05:03:05.016Z,100248.31
2023-03-06T05:05:32.580Z,100247.47
2023-03-06T05:07:59.648Z,100257.09
2023-03-06T05:10:26.897Z,100251.81
2023-03-06T05:12:53.969Z,100262.22
2023-03-06T05:15:21.176Z,100261.41
2023-03-06T05:17:48.426Z,100270.88
2023-03-06T05:20:16.991Z,100266.69
2023-03-06T05:22:44.133Z,100264.22
2023-03-06T05:25:11.682Z,100262.47
2023-03-06T05:27:38.768Z,100266.75
2023-03-06T05:30:06.752Z,100264.19
2023-03-06T05:32:35.561Z,100260.88
2023-03-06T05:35:04.100Z,100264.19
2023-03-06T05:37:31.837Z,100264.19
2023-03-06T05:39:59.484Z,100271.75
2023-03-06T05:42:28.604Z,100278.50
2023-03-06T05:44:55.798Z,100276.09
2023-03-06T05:47:22.855Z,100274.69
2023-03-06T05:49:50.039Z,100278.06
2023-03-06T05:52:17.702Z,100286.88
2023-03-06T05:54:44.763Z,100286.25
2023-03-06T05:57:12.117Z,100290.03
2023-03-06T05:59:39.203Z,100283.19
2023-03-06T06:02:06.303Z,100275.47
2023-03-06T06:04:33.571Z,100278.16
2023-03-06T06:07:01.233Z,100280.38
2023-03-06T06:09:29.467Z,100284.88
2023-03-06T06:11:59.983Z,100289.06
2023-03-06T06:14:28.539Z,100291.41
2023-03-06T06:16:56.135Z,100288.59
2023-03-06T06:19:23.605Z,100290.75
2023-03-06T06:21:53.881Z,100300.28
2023-03-06T06:24:24.449Z,100302.75
2023-03-06T06:26:56.271Z,100306.06
2023-03-06T06:29:24.512Z,100307.25
2023-03-06T06:31:52.652Z,100303.72
2023-03-06T06:34:20.090Z,100315.31
2023-03-06T06:36:47.862Z,100318.09
2023-03-06T06:39:16.534Z,100311.13
2023-03-06T06:41:57.285Z,100319.88
2023-03-06T06:44:26.795Z,100320.72
2023-03-06T06:49:41.070Z,100328.41
2023-03-06T06:52:08.313Z,100329.44
2023-03-06T06:54:35.351Z,100318.94
2023-03-06T06:57:02.411Z,100319.81
2023-03-06T06:59:29.513Z,100334.63
2023-03-06T07:01:56.674Z,100326.88
2023-03-06T07:04:23.764Z,100321.50
2023-03-06T07:06:50.858Z,100324.97
2023-03-06T07:09:18.026Z,100312.59
2023-03-06T07:11:45.101Z,100312.25
2023-03-06T07:14:12.193Z,100322.13
2023-03-06T07:16:39.882Z,100323.66
2023-03-06T07:19:07.567Z,100326.69
2023-03-06T07:21:35.076Z,100323.06
2023-03-06T07:24:02.320Z,100323.53
2023-03-06T07:26:32.682Z,100324.47
2023-03-06T07:29:01.212Z,100336.75
2023-03-06T07:31:28.943Z,100332.78
2023-03-06T07:33:56.578Z,100331.03
2023-03-06T07:36:24.257Z,100335.41
2023-03-06T07:38:51.437Z,100349.41
2023-03-06T07:41:21.830Z,100342.50
2023-03-06T07:43:49.853Z,100342.03
2023-03-06T07:46:17.419Z,100350.78
2023-03-06T07:48:44.837Z,100341.97
2023-03-06T07:51:17.918Z,100328.38
2023-03-06T07:53:45.093Z,100321.81
2023-03-06T07:56:13.067Z,100327.81
2023-03-06T07:58:43.206Z,100324.50
2023-03-06T08:01:15.957Z,100324.81
2023-03-06T08:03:43.337Z,100326.06
2023-03-06T08:06:13.043Z,100322.63
2023-03-06T08:08:42.282Z,100317.75
2023-03-06T08:11:11.472Z,100324.59
2023-03-06T08:13:39.723Z,100323.03
2023-03-06T08:16:07.377Z,100327.13
2023-03-06T08:18:34.852Z,100335.28
2023-03-06T08:21:07.972Z,100331.06
2023-03-06T08:23:35.745Z,100327.56
2023-03-06T08:26:06.020Z,100336.63
2023-03-06T08:28:33.160Z,100328.25
2023-03-06T08:31:20.619Z,100329.03
2023-03-06T08:33:48.192Z,100339.25
2023-03-06T08:36:15.657Z,100331.53
2023-03-06T08:38:42.732Z,100323.97
2023-03-06T08:41:10.012Z,100342.09
2023-03-06T08:43:37.209Z,100330.16
2023-03-06T08:46:04.501Z,100334.97
2023-03-06T08:48:31.977Z,100339.63
2023-03-06T08:50:59.056Z,100337.19
2023-03-06T08:53:41.763Z,100335.25
2023-03-06T08:56:22.408Z,100354.53
2023-03-06T08:58:50.024Z,100334.00
2023-03-06T09:01:20.577Z,100335.06
2023-03-06T09:03:47.813Z,100334.31
2023-03-06T09:06:15.568Z,100323.16
2023-03-06T09:08:44.635Z,100332.41
2023-03-06T09:11:15.687Z,100348.22
2023-03-06T09:13:43.570Z,100332.38
2023-03-06T09:16:11.553Z,100336.28
2023-03-06T09:18:39.044Z,100333.84
2023-03-06T09:21:07.097Z,100337.25
2023-03-06T09:23:35.032Z,100325.47
2023-03-06T09:26:02.579Z,100328.25
2023-03-06T09:28:29.710Z,100326.50
2023-03-06T09:30:56.919Z,100325.31
2023-03-06T09:33:24.264Z,100322.06
2023-03-06T09:35:56.441Z,100320.16
2023-03-06T09:38:26.591Z,100317.78
2023-03-06T09:41:02.430Z,100326.97
2023-03-06T09:43:35.713Z,100323.88
2023-03-06T09:46:36.854Z,100337.56
2023-03-06T09:49:23.299Z,100325.94
2023-03-06T09:51:53.115Z,100309.31
2023-03-06T09:54:33.247Z,100306.78
2023-03-06T09:57:00.887Z,100321.53
2023-03-06T09:59:28.773Z,100315.06
2023-03-06T10:02:10.486Z,100318.59
2023-03-06T10:04:51.882Z,100323.59
2023-03-06T10:08:12.371Z,100333.63
2023-03-06T10:10:56.541Z,100320.50
2023-03-06T10:13:50.613Z,100321.66
2023-03-06T10:16:23.973Z,100306.13
2023-03-06T10:18:51.586Z,100320.66
2023-03-06T10:21:58.543Z,100312.59
2023-03-06T10:24:46.892Z,100303.38
2023-03-06T10:27:34.770Z,100300.28
2023-03-06T10:30:39.057Z,100296.09
2023-03-06T10:33:42.805Z,100290.06
2023-03-06T10:36:18.668Z,100286.06
2023-03-06T10:38:48.679Z,100291.34
2023-03-06T10:41:23.237Z,100290.91
2023-03-06T10:44:05.680Z,100292.75
2023-03-06T10:46:35.936Z,100278.34
2023-03-06T10:49:22.569Z,100294.19
2023-03-06T10:52:13.959Z,100290.75
2023-03-06T10:54:43.982Z,100295.41
2023-03-06T10:57:30.115Z,100287.44
2023-03-06T11:00:05.845Z,100292.09
2023-03-06T11:02:41.115Z,100276.47
2023-03-06T11:05:20.128Z,100277.94
2023-03-06T11:08:01.549Z,100269.00
2023-03-06T11:10:30.593Z,100263.16
2023-03-06T11:13:06.338Z,100273.88
2023-03-06T11:15:34.195Z,100265.31
2023-03-06T11:18:05.055Z,100251.56
2023-03-06T11:20:51.116Z,100257.97
2023-03-06T11:23:39.553Z,100250.59
2023-03-06T11:26:15.764Z,100256.34
2023-03-06T11:28:46.300Z,100265.28
2023-03-06T11:31:18.908Z,100254.41
2023-03-06T11:33:51.675Z,100245.50
2023-03-06T11:36:30.524Z,100247.09
2023-03-06T11:38:57.652Z,100243.44
2023-03-06T11:41:51.606Z,100234.81
2023-03-06T11:44:43.811Z,100243.31
2023-03-06T11:47:23.105Z,100228.72
2023-03-06T11:50:10.242Z,100225.25
2023-03-06T11:52:58.168Z,100236.25
2023-03-06T11:55:39.507Z,100223.56
2023-03-06T11:58:32.422Z,100229.38
2023-03-06T12:01:08.796Z,100221.31
2023-03-06T12:04:08.152Z,100225.84
2023-03-06T12:07:09.545Z,100225.91
2023-03-06T12:09:39.328Z,100225.41
2023-03-06T12:12:34.259Z,100220.53
2023-03-06T12:15:29.852Z,100232.63
2023-03-06T12:18:31.054Z,100225.63
2023-03-06T12:21:07.386Z,100227.31
2023-03-06T12:23:49.986Z,100217.84
2023-03-06T12:26:41.667Z,100220.78
2023-03-06T12:29:33.753Z,100219.16
2023-03-06T12:32:21.376Z,100224.25
2023-03-06T12:35:19.262Z,100206.91
2023-03-06T12:38:04.359Z,100215.03
2023-03-06T12:40:58.162Z,100214.34
2023-03-06T12:43:46.396Z,100183.41
2023-03-06T12:46:17.161Z,100192.75
2023-03-06T12:48:48.906Z,100200.88
2023-03-06T12:51:20.671Z,100199.22
2023-03-06T12:53:49.130Z,100191.38
2023-03-06T12:56:18.558Z,100180.97
2023-03-06T12:58:52.362Z,100202.50
2023-03-06T13:01:38.259Z,100201.28
2023-03-06T13:04:26.881Z,100194.56
2023-03-06T13:07:31.067Z,100204.03
2023-03-06T13:10:27.676Z,100200.66
2023-03-06T13:13:24.685Z,100191.84
2023-03-06T13:16:03.620Z,100200.81
2023-03-06T13:18:33.528Z,100184.78
2023-03-06T13:21:00.985Z,100180.28
2023-03-06T13:23:34.890Z,100187.88
2023-03-06T13:26:26.814Z,100176.88
2023-03-06T13:28:57.858Z,100186.47
2023-03-06T13:31:34.172Z,100177.84
2023-03-06T13:34:03.808Z,100176.91
2023-03-06T13:36:39.407Z,100185.50
2023-03-06T13:39:11.579Z,100192.88
2023-03-06T13:41:53.856Z,100186.09
2023-03-06T13:44:23.724Z,100185.81
2023-03-06T13:47:19.300Z,100178.72
2023-03-06T13:49:49.045Z,100185.31
2023-03-06T13:52:30.389Z,100183.38
2023-03-06T13:55:06.075Z,100168.47
2023-03-06T13:58:08.398Z,100178.72
2023-03-06T14:01:07.602Z,100173.03
2023-03-06T14:03:52.811Z,100171.16
2023-03-06T14:06:35.052Z,100173.00
2023-03-06T14:09:57.132Z,100170.47
2023-03-06T14:12:36.306Z,100175.38
2023-03-06T14:15:17.358Z,100180.78
2023-03-06T14:18:07.365Z,100172.31
2023-03-06T14:20:46.133Z,100168.47
2023-03-06T14:23:23.333Z,100174.16
2023-03-06T14:26:05.737Z,100172.00
2023-03-06T14:28:35.598Z,100159.66
2023-03-06T14:31:06.189Z,100171.44
2023-03-06T14:33:45.055Z,100163.19
2023-03-06T14:36:15.592Z,100168.59
2023-03-06T14:38:57.078Z,100169.59
2023-03-06T14:41:30.727Z,100164.19
2023-03-06T14:44:21.962Z,100161.56
2023-03-06T14:46:55.246Z,100163.63
2023-03-06T14:49:24.516Z,100166.84
2023-03-06T14:51:54.758Z,100164.13
2023-03-06T14:54:27.475Z,100166.50
2023-03-06T14:57:01.863Z,100177.59
2023-03-06T14:59:33.155Z,100162.97
2023-03-06T15:02:05.242Z,100163.63
2023-03-06T15:04:44.870Z,100161.03
2023-03-06T15:07:16.454Z,100171.84
2023-03-06T15:09:53.791Z,100166.84
2023-03-06T15:12:21.010Z,100173.94
2023-03-06T15:14:56.988Z,100179.84
2023-03-06T15:17:39.569Z,100173.56
2023-03-06T15:20:27.697Z,100178.94
2023-03-06T15:22:54.791Z,100177.06
2023-03-06T15:25:31.667Z,100180.75
2023-03-06T15:28:04.586Z,100178.63
2023-03-06T15:30:34.046Z,100183.34
2023-03-06T15:33:19.557Z,100185.00
2023-03-06T15:35:57.459Z,100199.34
2023-03-06T15:38:35.395Z,100202.06
2023-03-06T15:41:05.172Z,100205.78
2023-03-06T15:43:39.469Z,100197.28
2023-03-06T15:46:08.125Z,100200.88
2023-03-06T15:48:35.604Z,100201.41
2023-03-06T15:51:03.929Z,100212.03
2023-03-06T15:53:31.470Z,100207.66
2023-03-06T15:55:59.604Z,100203.28
2023-03-06T15:58:29.390Z,100207.25
2023-03-06T16:00:56.562Z,100200.88
2023-03-06T16:03:23.758Z,100211.13
2023-03-06T16:05:50.925Z,100213.13
2023-03-06T16:08:17.964Z,100215.56
2023-03-06T16:10:47.232Z,100222.38
2023-03-06T16:13:21.630Z,100223.84
2023-03-06T16:15:50.816Z,100216.94
2023-03-06T16:18:18.650Z,100227.91
2023-03-06T16:20:45.923Z,100228.47
2023-03-06T16:23:13.318Z,100231.13
2023-03-06T16:25:43.120Z,100232.75
2023-03-06T16:28:15.568Z,100231.97
2023-03-06T16:30:44.518Z,100231.97
2023-03-06T16:33:12.587Z,100235.78
2023-03-06T16:35:41.395Z,100238.41
2023-03-06T16:38:10.672Z,100240.88
2023-03-06T16:40:41.424Z,100243.56
2023-03-06T16:43:10.281Z,100240.81
2023-03-06T16:45:39.798Z,100246.97
2023-03-06T16:48:07.425Z,100235.84
2023-03-06T16:50:38.708Z,100237.69
2023-03-06T16:53:06.749Z,100235.78
2023-03-06T16:55:34.079Z,100246.59
2023-03-06T16:58:01.225Z,100241.19
2023-03-06T17:00:32.012Z,100244.72
2023-03-06T17:03:00.774Z,100242.66
2023-03-06T17:05:29.147Z,100243.47
2023-03-06T17:07:56.484Z,100249.53
2023-03-06T17:10:26.487Z,100241.66
2023-03-06T17:12:54.583Z,100248.72
2023-03-06T17:15:21.640Z,100250.41
2023-03-06T17:17:48.926Z,100254.72
2023-03-06T17:20:16.109Z,100255.19
2023-03-06T17:22:43.193Z,100261.09
2023-03-06T17:25:11.053Z,100265.59
2023-03-06T17:27:38.638Z,100274.41
2023-03-06T17:30:06.638Z,100267.47
2023-03-06T17:32:34.197Z,100264.13
2023-03-06T17:35:01.546Z,100260.84
2023-03-06T17:37:28.857Z,100265.81
2023-03-06T17:39:56.025Z,100269.47
2023-03-06T17:42:23.057Z,100271.31
2023-03-06T17:44:51.057Z,100268.13
2023-03-06T17:47:18.160Z,100268.13
2023-03-06T17:49:45.456Z,100275.22
2023-03-06T17:52:12.559Z,100275.38
2023-03-06T17:54:39.703Z,100271.06
2023-03-06T17:57:06.950Z,100277.25
2023-03-06T17:59:34.553Z,100275.75
2023-03-06T18:02:02.269Z,100273.94
2023-03-06T18:04:30.802Z,100275.63
2023-03-06T18:06:58.520Z,100274.91
2023-03-06T18:09:25.702Z,100277.78
2023-03-06T18:11:52.810Z,100275.06
2023-03-06T18:14:19.880Z,100273.25
2023-03-06T18:16:47.165Z,100281.22
2023-03-06T18:19:14.502Z,100271.63
2023-03-06T18:21:41.552Z,100266.38
2023-03-06T18:24:11.104Z,100270.84
2023-03-06T18:26:38.354Z,100271.78
2023-03-06T18:29:05.513Z,100278.81
2023-03-06T18:31:35.949Z,100280.56
2023-03-06T18:34:06.850Z,100284.03
2023-03-06T18:36:35.027Z,100283.16
2023-03-06T18:39:03.990Z,100296.22
2023-03-06T18:41:31.925Z,100287.50
2023-03-06T18:44:00.733Z,100286.66
2023-03-06T18:46:38.330Z,100297.16
2023-03-06T18:49:06.404Z,100292.75
2023-03-06T18:51:34.134Z,100294.50
2023-03-06T18:54:02.779Z,100290.16
2023-03-06T18:56:30.914Z,100297.94
2023-03-06T18:59:02.722Z,100284.84
2023-03-06T19:01:31.412Z,100294.47
2023-03-06T19:04:03.419Z,100291.03
2023-03-06T19:06:31.246Z,100291.91
2023-03-06T19:08:58.972Z,100289.25
2023-03-06T19:11:27.160Z,100284.03
2023-03-06T19:13:54.855Z,100280.53
2023-03-06T19:16:25.903Z,100277.91
2023-03-06T19:18:55.700Z,100280.56
2023-03-06T19:21:24.974Z,100281.44
2023-03-06T19:23:52.262Z,100287.53
2023-03-06T19:26:20.303Z,100282.31
2023-03-06T19:28:48.216Z,100287.53
2023-03-06T19:31:21.154Z,100282.28
2023-03-06T19:33:49.491Z,100296.28
2023-03-06T19:36:18.556Z,100283.19
2023-03-06T19:38:50.411Z,100284.03
2023-03-06T19:41:17.961Z,100278.78
2023-03-06T19:43:49.490Z,100275.31
2023-03-06T19:46:16.614Z,100275.31
2023-03-06T19:48:43.916Z,100276.19
2023-03-06T19:51:11.305Z,100277.06
2023-03-06T19:53:41.555Z,100273.56
2023-03-06T19:56:20.752Z,100262.22
2023-03-06T19:58:48.105Z,100270.06
2023-03-06T20:01:18.898Z,100270.06
2023-03-06T20:03:46.163Z,100272.69
2023-03-06T20:06:16.442Z,100270.00
2023-03-06T20:08:44.772Z,100275.25
2023-03-06T20:11:19.575Z,100277.66
2023-03-06T20:13:47.757Z,100276.78
2023-03-06T20:16:16.096Z,100270.56
2023-03-06T20:18:43.595Z,100273.34
2023-03-06T20:21:11.042Z,100274.31
2023-03-06T20:23:38.282Z,100269.94
2023-03-06T20:26:16.036Z,100281.28
2023-03-06T20:28:43.451Z,100277.72
2023-03-06T20:31:13.657Z,100272.47
2023-03-06T20:33:40.799Z,100266.38
2023-03-06T20:36:20.437Z,100268.91
2023-03-06T20:38:47.615Z,100267.06
2023-03-06T20:41:23.089Z,100263.75
2023-03-06T20:43:49.986Z,100255.94
2023-03-06T20:46:17.916Z,100261.19
2023-03-06T20:48:49.071Z,100256.03
2023-03-06T20:51:20.844Z,100254.31
2023-03-06T20:53:49.400Z,100249.13
2023-03-06T20:56:18.862Z,100250.84
2023-03-06T20:58:46.087Z,100249.09
2023-03-06T21:01:24.426Z,100249.97
2023-03-06T21:03:52.304Z,100248.00
2023-03-06T21:06:20.441Z,100257.25
2023-03-06T21:08:47.986Z,100245.63
2023-03-06T21:11:15.527Z,100251.78
2023-03-06T21:13:42.891Z,100247.03
2023-03-06T21:16:13.953Z,100247.25
2023-03-06T21:18:41.153Z,100248.16
2023-03-06T21:21:10.618Z,100245.56
2023-03-06T21:23:38.317Z,100236.88
2023-03-06T21:26:06.157Z,100236.03
2023-03-06T21:28:34.262Z,100229.03
2023-03-06T21:31:02.140Z,100228.16
2023-03-06T21:33:29.343Z,100230.78
2023-03-06T21:35:56.490Z,100231.66
2023-03-06T21:38:23.729Z,100235.06
2023-03-06T21:40:50.869Z,100238.53
2023-03-06T21:43:17.892Z,100229.69
2023-03-06T21:45:46.532Z,100241.06
2023-03-06T21:48:14.779Z,100231.25
2023-03-06T21:50:42.559Z,100229.44
2023-03-06T21:53:10.010Z,100233.91
2023-03-06T21:55:41.006Z,100229.66
2023-03-06T21:58:08.607Z,100220.94
2023-03-06T22:00:36.687Z,100217.44
2023-03-06T22:03:05.058Z,100221.75
2023-03-06T22:05:32.268Z,100219.16
2023-03-06T22:07:59.660Z,100218.22
2023-03-06T22:10:26.773Z,100210.50
2023-03-06T22:12:53.838Z,100208.81
2023-03-06T22:15:21.954Z,100211.47
2023-03-06T22:17:49.120Z,100214.94
2023-03-06T22:20:16.317Z,100215.81
2023-03-06T22:22:44.048Z,100211.47
2023-03-06T22:25:12.003Z,100219.25
2023-03-06T22:27:39.100Z,100210.56
2023-03-06T22:30:06.900Z,100211.25
2023-03-06T22:32:34.070Z,100208.41
2023-03-06T22:35:01.228Z,100212.00
2023-03-06T22:37:28.324Z,100211.22
2023-03-06T22:39:56.307Z,100210.28
2023-03-06T22:42:23.452Z,100205.66
2023-03-06T22:44:50.490Z,100207.72
2023-03-06T22:47:17.522Z,100205.19
2023-03-06T22:49:44.564Z,100212.31
2023-03-06T22:52:12.916Z,100210.47
2023-03-06T22:54:41.409Z,100203.97
2023-03-06T22:57:08.497Z,100199.03
2023-03-06T22:59:35.519Z,100203.09
2023-03-06T23:02:03.835Z,100202.34
2023-03-06T23:04:30.978Z,100203.06
2023-03-06T23:06:58.236Z,100200.56
2023-03-06T23:09:25.685Z,100203.47
2023-03-06T23:12:12.120Z,100209.63
2023-03-06T23:14:57.636Z,100200.06
2023-03-06T23:17:43.237Z,100203.59
2023-03-06T23:20:28.742Z,100192.28
2023-03-06T23:23:14.471Z,100194.88
2023-03-06T23:25:41.831Z,100194.00
2023-03-06T23:28:08.968Z,100189.63
2023-03-06T23:30:39.126Z,100187.88
2023-03-06T23:33:06.649Z,100187.03
2023-03-06T23:35:34.975Z,100182.59
2023-03-06T23:38:02.617Z,100186.91
2023-03-06T23:40:31.890Z,100180.84
2023-03-06T23:42:58.942Z,100180.81
2023-03-06T23:45:27.464Z,100173.78
2023-03-06T23:47:54.527Z,100172.00
2023-03-06T23:50:23.109Z,100166.66
2023-03-06T23:52:54.324Z,100170.97
2023-03-06T23:55:22.033Z,100165.91
2023-03-06T23:57:49.100Z,100165.03
